Flight Track Log - Related Links

Times and Time Zones

All times are in EDT time to prevent confusion due to time zone crossing. See the DCM1130 flight status page for this flight to view local times or setup timezone preferences in your user account.

Time Position Orientation Groundspeed Altitude Reporting Facility
EDT Latitude Longitude Course Direction KTS MPH feet Rate Location/Type
Mon 07:13:35 AM 40.0667 -75.0333 217° Southwest 163 188 800  Level Philadelphia TRACON
Mon 07:14:05 AM 40.0500 -75.0500 217° Southwest 207 238 1,800 2,200 Climbing Philadelphia TRACON
Mon 07:15:05 AM 40.0000 -75.1167 226° Southwest 254 292 4,100 2,600 Climbing Philadelphia TRACON
Mon 07:16:05 AM 39.9500 -75.1667 217° Southwest 273 314 7,000 2,800 Climbing Philadelphia TRACON
Mon 07:17:05 AM 39.8667 -75.2000 197° South 277 319 9,700 1,485 Climbing Philadelphia TRACON
Mon 07:19:27 AM 39.6797 -75.2842 199° South 330 380 12,000 1,005 Climbing Washington Center
Mon 07:20:28 AM 39.5861 -75.3169 195° South 346 398 13,100 1,525 Climbing Washington Center
Mon 07:21:29 AM 39.4903 -75.3333 188° South 351 404 15,100 1,462 Climbing Washington Center
Mon 07:22:27 AM 39.3925 -75.3500 188° South 356 410 16,000 655 Climbing Washington Center
Mon 07:23:28 AM 39.2842 -75.3689 188° South 376 433 16,400 492 Climbing Washington Center
Mon 07:24:29 AM 39.1800 -75.3853 187° South 381 438 17,000 857 Climbing Washington Center
Mon 07:25:27 AM 39.0778 -75.4017 187° South 381 438 18,100 1,563 Climbing Washington Center
Mon 07:26:28 AM 38.9778 -75.4181 187° South 381 438 20,100 1,770 Climbing Washington Center
Mon 07:27:29 AM 38.8883 -75.4742 206° Southwest 364 419 21,700 1,488 Climbing Washington Center
Mon 07:28:29 AM 38.7964 -75.5250 203° Southwest 364 419 23,100 1,271 Climbing Washington Center
Mon 07:29:27 AM 38.7028 -75.5758 203° Southwest 364 419 24,200 1,059 Climbing Washington Center
Mon 07:30:28 AM 38.6069 -75.6369 206° Southwest 369 425 25,200 984 Climbing Washington Center
Mon 07:31:29 AM 38.5067 -75.6872 201° Southwest 381 438 26,200 1,017 Climbing Washington Center
Mon 07:32:26 AM 38.4067 -75.7453 204° Southwest 386 444 27,200 1,109 Climbing Washington Center
Mon 07:33:28 AM 38.2961 -75.8033 202° Southwest 392 451 28,400 1,082 Climbing Washington Center
Mon 07:34:28 AM 38.1958 -75.8586 203° Southwest 397 457 29,400 992 Climbing Washington Center
Mon 07:35:29 AM 38.0914 -75.9161 203° Southwest 397 457 30,400 1,008 Climbing Washington Center
Mon 07:36:27 AM 37.9933 -75.9686 203° Southwest 397 457 31,400 1,008 Climbing Washington Center
Mon 07:37:28 AM 37.8950 -76.0233 204° Southwest 397 457 32,400 992 Climbing Washington Center
Mon 07:38:28 AM 37.7947 -76.0781 203° Southwest 397 457 33,400 908 Climbing Washington Center
Mon 07:39:27 AM 37.7069 -76.1350 207° Southwest 397 457 34,200 950 Climbing Washington Center
Mon 07:40:28 AM 37.5961 -76.1817 198° South 397 457 35,300 885 Climbing Washington Center
Mon 07:41:29 AM 37.4958 -76.2228 198° South 391 450 36,000 347 Climbing Washington Center
Mon 07:42:29 AM 37.3914 -76.2661 198° South 391 450 36,000  Level Washington Center
Mon 07:43:29 AM 37.2847 -76.3150 200° South 391 450 36,000  Level Washington Center
Mon 07:44:26 AM 37.1758 -76.3608 199° South 406 467 36,000  Level Washington Center
Mon 07:45:27 AM 37.0628 -76.4067 198° South 416 479 36,000  Level Washington Center
Mon 07:46:27 AM 36.9519 -76.4547 199° South 421 484 36,000  Level Washington Center
Mon 07:47:29 AM 36.8411 -76.5003 198° South 426 490 36,000  Level Washington Center
Mon 07:48:27 AM 36.7281 -76.5508 200° South 426 490 36,000  Level Washington Center
Mon 07:49:27 AM 36.6150 -76.6011 200° South 426 490 36,000 350 Level Washington Center
Mon 07:50:27 AM 36.5039 -76.6461 198° South 426 490 36,700 700 Climbing Washington Center
Mon 07:51:27 AM 36.3931 -76.6939 199° South 426 490 37,400 650 Climbing Washington Center
Mon 07:52:27 AM 36.2861 -76.7361 198° South 421 484 38,000 303 Climbing Washington Center
Mon 07:53:26 AM 36.1753 -76.7783 197° South 421 484 38,000  Level Washington Center
Mon 07:54:27 AM 36.0642 -76.8281 200° South 421 484 38,000 -50 Level Washington Center
Mon 07:55:27 AM 35.9489 -76.8722 197° South 427 491 37,900  Descending Washington Center
Mon 07:56:28 AM 35.8336 -76.9167 197° South 432 497 38,000 98 Climbing Washington Center
Mon 07:57:29 AM 35.7206 -76.9658 199° South 432 497 38,100 303 Climbing Washington Center
Mon 07:58:27 AM 35.6114 -77.0125 199° South 425 489 38,600 504 Climbing Washington Center
Mon 07:59:28 AM 35.5003 -77.0564 198° South 425 489 39,100 496 Climbing Washington Center
Mon 08:00:28 AM 35.3911 -77.1003 198° South 425 489 39,600 450 Climbing Washington Center
Mon 08:01:28 AM 35.2800 -77.1442 198° South 425 489 40,000 202 Climbing Washington Center
Mon 08:02:27 AM 35.1711 -77.1903 199° South 425 489 40,000  Level Washington Center
Mon 08:03:27 AM 35.0597 -77.2339 198° South 430 495 40,000  Level Washington Center
Mon 08:04:29 AM 34.9422 -77.2819 199° South 430 495 40,000  Level Washington Center
Mon 08:05:41 AM 34.8186 -77.3275 197° South 430 495 40,000  Level Washington Center
Mon 08:06:40 AM 34.7011 -77.3631 194° South 425 489 40,000  Level Washington Center
Mon 08:07:40 AM 34.5900 -77.4086 199° South 425 489 40,000  Level Washington Center
Mon 08:09:36 AM 34.3636 -77.4972 198° South 420 483 40,000  Level Jacksonville Center
Mon 08:10:36 AM 34.2364 -77.5453 197° South 420 483 40,000  Level Jacksonville Center
Mon 08:11:37 AM 34.1275 -77.5872 198° South 440 506 40,000  Level Jacksonville Center
Mon 08:12:36 AM 34.0106 -77.6344 199° South 451 519 40,000  Level Jacksonville Center
Mon 08:13:36 AM 33.8936 -77.6789 198° South 451 519 40,000  Level Jacksonville Center
Mon 08:14:36 AM 33.7744 -77.7283 199° South 446 513 40,000  Level Jacksonville Center
Mon 08:15:36 AM 33.6431 -77.7786 198° South 456 525 40,000  Level Jacksonville Center
Mon 08:16:36 AM 33.5258 -77.8228 197° South 456 525 40,000  Level Jacksonville Center
Mon 08:17:36 AM 33.4089 -77.8692 198° South 456 525 40,000  Level Jacksonville Center
Mon 08:18:36 AM 33.2897 -77.9156 198° South 456 525 40,000  Level Jacksonville Center
Mon 08:19:36 AM 33.1703 -77.9594 197° South 456 525 40,000  Level Jacksonville Center
Mon 08:20:36 AM 33.0531 -78.0056 198° South 456 525 40,000 -50 Level Jacksonville Center
Mon 08:21:36 AM 32.9317 -78.0494 197° South 456 525 39,900  Descending Jacksonville Center
Mon 08:22:36 AM 32.8147 -78.0978 199° South 456 525 40,000 50 Climbing Jacksonville Center
Mon 08:23:36 AM 32.6953 -78.1436 198° South 456 525 40,000  Level Jacksonville Center
Mon 08:24:36 AM 32.5736 -78.1844 196° South 456 525 40,000  Level Jacksonville Center
Mon 08:25:36 AM 32.4522 -78.2325 198° South 456 525 40,000 -50 Level Jacksonville Center
Mon 08:26:36 AM 32.3578 -78.2717 199° South 456 525 39,900  Descending Jacksonville Center
Mon 08:27:36 AM 32.2242 -78.3275 199° South 456 525 40,000  Climbing Jacksonville Center
Mon 08:28:36 AM 32.1047 -78.3728 198° South 456 525 39,900 -50 Descending Jacksonville Center
Mon 08:29:36 AM 31.9872 -78.4178 198° South 451 519 39,900 50 Level Jacksonville Center
Mon 08:30:36 AM 31.8697 -78.4600 197° South 451 519 40,000  Climbing Jacksonville Center
Mon 08:31:36 AM 31.7483 -78.5075 198° South 452 520 39,900  Descending Jacksonville Center
Mon 08:32:36 AM 31.6286 -78.5497 197° South 452 520 40,000 50 Climbing Jacksonville Center
Mon 08:33:36 AM 31.5114 -78.5967 199° South 452 520 40,000  Level Jacksonville Center
Mon 08:34:36 AM 31.3956 -78.6336 195° South 450 518 40,000  Level Jacksonville Center
Mon 08:35:37 AM 31.2719 -78.6806 198° South 450 518 40,000 -50 Level Jacksonville Center
Mon 08:36:36 AM 31.1483 -78.7297 199° South 457 526 39,900  Descending Jacksonville Center
Mon 08:37:36 AM 31.0267 -78.7739 197° South 457 526 40,000 35 Climbing Jacksonville Center
Mon 08:39:29 AM 30.7914 -78.8614 198° South 446 513 40,000  Level Miami Center
Mon 08:40:29 AM 30.6636 -78.9047 196° South 455 524 40,000  Level Miami Center
Mon 08:41:29 AM 30.5464 -78.9481 198° South 455 524 40,000  Level Miami Center
Mon 08:42:29 AM 30.4250 -78.9914 197° South 460 529 40,000  Level Miami Center
Mon 08:43:29 AM 30.3072 -79.0444 201° Southwest 461 531 40,000  Level Miami Center
Mon 08:44:29 AM 30.1856 -79.0969 200° South 461 531 40,000 -50 Level Miami Center
Mon 08:45:29 AM 30.0681 -79.1497 201° Southwest 466 536 39,900  Descending Miami Center
Mon 08:46:29 AM 29.9525 -79.2072 203° Southwest 466 536 40,000 -800 Climbing Miami Center
Mon 08:47:29 AM 29.8508 -79.2981 218° Southwest 461 531 38,300 -2,000 Descending Miami Center
Mon 08:48:29 AM 29.7450 -79.3842 215° Southwest 461 531 36,000 -2,250 Descending Miami Center
Mon 08:49:29 AM 29.6475 -79.4797 220° Southwest 466 536 33,800 -2,200 Descending Miami Center
Mon 08:50:29 AM 29.5478 -79.5703 218° Southwest 466 536 31,600 -2,250 Descending Miami Center
Mon 08:51:29 AM 29.4419 -79.6511 214° Southwest 466 536 29,300 -2,250 Descending Miami Center
Mon 08:52:29 AM 29.3503 -79.7486 223° Southwest 466 536 27,100 -2,150 Descending Miami Center
Mon 08:53:29 AM 29.2525 -79.8367 218° Southwest 453 521 25,000 -2,100 Descending Miami Center
Mon 08:54:29 AM 29.1569 -79.9172 216° Southwest 442 509 22,900 -2,100 Descending Miami Center
Mon 08:55:29 AM 29.0656 -80.0000 218° Southwest 436 502 20,800 -2,100 Descending Miami Center
Mon 08:56:29 AM 28.9761 -80.0781 217° Southwest 424 488 18,700 -2,013 Descending Miami Center
Mon 08:58:01 AM 28.8833 -80.2333 236° Southwest 396 456 15,700 -1,816 Descending Orlando TRACON
Mon 08:59:01 AM 28.8500 -80.3500 252° West 381 438 14,100 -800 Descending Orlando TRACON
Mon 09:00:01 AM 28.8167 -80.4667 252° West 388 447 14,100 -250 Level Orlando TRACON
Mon 09:01:01 AM 28.8167 -80.5833 270° West 388 447 13,600 -992 Descending Orlando TRACON
Mon 09:02:02 AM 28.8000 -80.7167 262° West 390 449 12,100 -1,488 Descending Orlando TRACON
Mon 09:03:02 AM 28.7667 -80.8167 249° West 305 351 10,600 -1,500 Descending Orlando TRACON
Mon 09:04:02 AM 28.7000 -80.8833 221° Southwest 291 335 9,100 -1,500 Descending Orlando TRACON
Mon 09:05:02 AM 28.6500 -80.9500 229° Southwest 287 330 7,600 -1,500 Descending Orlando TRACON
Mon 09:06:02 AM 28.6000 -81.0000 221° Southwest 278 320 6,100 -800 Descending Orlando TRACON
Mon 09:07:02 AM 28.5500 -81.0667 230° Southwest 273 314 6,000 -99 Descending Orlando TRACON
Mon 09:08:03 AM 28.5000 -81.1333 230° Southwest 272 313 5,900 -446 Descending Orlando TRACON
Mon 09:09:03 AM 28.4667 -81.2167 246° West 274 315 5,100 -800 Descending Orlando TRACON
Mon 09:10:03 AM 28.4500 -81.3000 257° West 274 315 4,300 -900 Descending Orlando TRACON
Mon 09:11:03 AM 28.4333 -81.3833 257° West 228 262 3,300 -595 Descending Orlando TRACON
Mon 09:12:04 AM 28.4333 -81.4333 270° West 199 229 3,100 -694 Descending Orlando TRACON
Mon 09:13:04 AM 28.3833 -81.4833 221° Southwest 201 231 1,900 -1,200 Descending Orlando TRACON

Login

Don't have an account? Register now (free) for customized features, flight alerts, and more!